• Join FlightAware (Why Join?)
  • Login
  • US Flag 
10:19AM EDT


 

Airport Tracker/Info


-or-


 

Live Flight TrackerFlight Track Log ✈ AAL1583 ✈ 07-May-2013 ✈ KSTL - KDFW

Flight Track Log - Related Links

Times and Time Zones

All times are in EDT time to prevent confusion due to time zone crossing. See the AAL1583 flight status page for this flight to view local times or setup timezone preferences in your user account.

Time Position Orientation Groundspeed Altitude Reporting Facility
EDT Latitude Longitude Course Direction KTS MPH feet Rate Location/Type
02:01PM 38.7833 -90.4500 240° Southwest 191 220 2,400  Level Gateway (St. Louis) TRACON
02:02PM 38.8003 -90.4981 294° West 230 265 3,800 2,580 Climbing Kansas City Center
02:03PM 38.5378 -90.4658 236° Southwest  Level FlightAware Approximate
02:03PM 38.8378 -90.5811 300° West 268 308 7,200  Level Kansas City Center
02:04PM 38.4786 -90.5770 240° Southwest  Level FlightAware Approximate
02:04PM 38.7964 -90.6750 241° Southwest 291 335 9,800  Level Kansas City Center
02:05PM 38.4259 -90.6932 240° Southwest  Level FlightAware Approximate
02:05PM 38.7194 -90.7233 206° Southwest 310 357 12,000  Level Kansas City Center
02:06PM 38.3731 -90.8094 240° Southwest  Level FlightAware Approximate
02:06PM 38.6300 -90.7836 208° Southwest 362 417 14,100  Level Kansas City Center
02:07PM 38.5328 -90.8397 204° Southwest 384 442 16,600 2,340 Climbing Kansas City Center
02:08PM 38.4319 -90.9006 205° Southwest 399 459 19,000 2,400 Climbing Kansas City Center
02:09PM 38.3078 -90.9756 205° Southwest 412 474 21,600 2,040 Climbing Kansas City Center
02:10PM 38.2111 -91.0583 214° Southwest 423 487 23,300 1,680 Climbing Kansas City Center
02:11PM 38.1131 -91.1481 216° Southwest 433 498 25,100 1,800 Climbing Kansas City Center
02:12PM 38.0108 -91.2381 215° Southwest 442 509 27,100 1,860 Climbing Kansas City Center
02:13PM 37.9289 -91.3475 227° Southwest 433 498 29,000 1,740 Climbing Kansas City Center
02:14PM 37.8456 -91.4586 226° Southwest 435 501 30,700 1,440 Climbing Kansas City Center
02:15PM 37.7456 -91.5875 226° Southwest 430 495 32,000 600 Climbing Kansas City Center
02:16PM 37.6625 -91.6978 226° Southwest 431 496 32,000  Level Kansas City Center
02:17PM 37.5803 -91.8075 227° Southwest 433 498 32,000  Level Kansas City Center
02:18PM 37.5128 -91.9306 235° Southwest 428 493 32,000  Level Kansas City Center
02:19PM 37.4444 -92.0542 235° Southwest 429 494 32,000  Level Kansas City Center
02:20PM 37.3703 -92.1850 235° Southwest 428 493 32,000  Level Kansas City Center
02:21PM 37.3014 -92.3075 235° Southwest 430 495 32,000  Level Kansas City Center
02:22PM 37.2328 -92.4303 235° Southwest 430 495 32,000  Level Kansas City Center
02:23PM 37.1644 -92.5500 234° Southwest 426 490 32,000  Level Kansas City Center
02:24PM 37.0828 -92.6914 234° Southwest 421 484 32,000  Level Kansas City Center
02:25PM 37.0131 -92.8100 234° Southwest 423 487 32,000  Level Kansas City Center
02:27PM 36.9456 -92.9297 235° Southwest 422 486 32,000  Level Kansas City Center
02:27PM 36.8736 -93.0514 234° Southwest 423 487 32,000  Level Memphis Center
02:28PM 36.8067 -93.1686 235° Southwest 423 487 32,000  Level Memphis Center
02:29PM 36.7392 -93.2903 235° Southwest 418 481 32,000  Level Memphis Center
02:30PM 36.6697 -93.4069 233° Southwest 418 481 32,000  Level Memphis Center
02:31PM 36.5981 -93.5206 232° Southwest 423 487 32,000  Level Memphis Center
02:32PM 36.5283 -93.6392 234° Southwest 423 487 32,000  Level Memphis Center
02:33PM 36.4606 -93.7578 235° Southwest 423 487 32,000  Level Memphis Center
02:34PM 36.3947 -93.8683 234° Southwest 418 481 32,000  Level Memphis Center
02:35PM 36.3842 -93.8875 236° Southwest 417 480 32,000  Level Kansas City Center
02:35PM 36.3067 -93.9625 218° Southwest 410 472 32,000  Level Memphis Center
02:36PM 36.2008 -94.0219 204° Southwest 410 472 32,000  Level Memphis Center
02:37PM 36.0969 -94.0792 204° Southwest 415 478 32,000  Level Memphis Center
02:38PM 35.9928 -94.1411 206° Southwest 415 478 32,000  Level Memphis Center
02:39PM 35.8847 -94.2000 204° Southwest 421 484 32,000  Level Memphis Center
02:40PM 35.7806 -94.2592 205° Southwest 421 484 32,000  Level Memphis Center
02:41PM 35.6767 -94.3208 206° Southwest 421 484 32,000  Level Memphis Center
02:42PM 35.5706 -94.3769 203° Southwest 421 484 32,000  Level Memphis Center
02:43PM 35.4642 -94.4356 204° Southwest 416 479 32,000  Level Memphis Center
02:44PM 35.3792 -94.4850 205° Southwest 421 484 32,000  Level Memphis Center
02:45PM 35.2497 -94.5497 202° Southwest 416 479 32,000  Level Memphis Center
02:47PM 35.0569 -94.6592 205° Southwest 401 461 32,000  Level Fort Worth Center
02:48PM 34.9628 -94.7381 214° Southwest 407 468 32,000  Level Fort Worth Center
02:49PM 34.8853 -94.8217 222° Southwest 412 474 32,000  Level Fort Worth Center
02:50PM 34.7933 -94.9206 221° Southwest 412 474 32,000  Level Fort Worth Center
02:51PM 34.7056 -95.0189 223° Southwest 418 481 32,000  Level Fort Worth Center
02:52PM 34.6258 -95.1094 223° Southwest 409 471 32,000 -840 Level Fort Worth Center
02:53PM 34.5483 -95.2125 228° Southwest 409 471 30,400 -1,320 Descending Fort Worth Center
02:54PM 34.4689 -95.3128 226° Southwest 409 471 29,400 -1,020 Descending Fort Worth Center
02:55PM 34.3911 -95.4128 227° Southwest 414 476 28,400 -1,020 Descending Fort Worth Center
02:56PM 34.3094 -95.5178 227° Southwest 414 476 27,400 -1,080 Descending Fort Worth Center
02:57PM 34.2192 -95.6303 226° Southwest 419 482 26,300 -1,080 Descending Fort Worth Center
02:58PM 34.1392 -95.7322 227° Southwest 419 482 25,300 -1,320 Descending Fort Worth Center
02:59PM 34.0694 -95.8214 227° Southwest 419 482 23,700 -2,040 Descending Fort Worth Center
03:00PM 33.9850 -95.9281 226° Southwest 409 471 21,300 -2,400 Descending Fort Worth Center
03:01PM 33.9131 -96.0194 227° Southwest 393 452 19,000 -2,040 Descending Fort Worth Center
03:02PM 33.8431 -96.1081 226° Southwest 378 435 17,300 -1,920 Descending Fort Worth Center
03:03PM 33.7897 -96.1789 228° Southwest 349 402 15,200 -2,040 Descending Fort Worth Center
03:04PM 33.7133 -96.2722 225° Southwest 349 402 13,300 -1,620 Descending Fort Worth Center
03:05PM 33.6533 -96.3481 226° Southwest 355 409 12,000 -1,200 Descending Fort Worth Center
03:06PM 33.5853 -96.4336 226° Southwest 337 388 10,900 -960 Descending Fort Worth Center
03:07PM 33.5336 -96.4964 225° Southwest 303 349 10,100 -900 Descending Fort Worth Center
03:08PM 33.4736 -96.5717 226° Southwest 297 342 9,200 -660 Descending Fort Worth Center
03:09PM 33.4175 -96.6344 223° Southwest 291 335 8,800 -600 Descending Fort Worth Center
03:10PM 33.3636 -96.6897 221° Southwest 286 329 8,100 -840 Descending Fort Worth Center
03:11PM 33.3014 -96.7572 222° Southwest 286 329 7,200 -840 Descending Fort Worth Center
03:12PM 33.2767 -96.8269 247° West 271 312 6,500 -600 Descending Fort Worth Center
03:13PM 33.2686 -96.9117 264° West 259 298 6,000 -300 Descending Fort Worth Center
03:14PM 33.2481 -96.9861 252° West 234 269 6,000 -180 Level Fort Worth Center
03:15PM 33.1961 -97.0161 206° Southwest 212 244 5,700 -660 Descending Fort Worth Center
03:16PM 33.1272 -97.0264 187° South 217 250 4,700 -1,020 Descending Fort Worth Center